Time;durP1;ratioP1;P1;durP2;ratioP2;P2;SDS_P1;SDS_P2;PMS_P1;PMS_P2;Temp;Humidity;BMP_temperature;BMP_pressure;BME280_temperature;BME280_humidity;BME280_pressure;Samples;Min_cycle;Max_cycle;Signal;HPM_P1;HPM_P2
2022/06/27 00:01:06;;;;;;;7.80;6.87;;;23.00;95.20;;;;;;4991196;28;20232;-83
2022/06/27 00:03:31;;;;;;;8.67;7.53;;;23.00;95.30;;;;;;4991680;28;20186;-83
2022/06/27 00:05:57;;;;;;;8.60;7.13;;;23.00;95.40;;;;;;4985163;28;20197;-83
2022/06/27 00:08:23;;;;;;;9.97;6.63;;;23.00;95.50;;;;;;4972046;28;20210;-84
2022/06/27 00:10:48;;;;;;;7.83;7.13;;;23.00;95.40;;;;;;4979282;28;20209;-83
2022/06/27 00:13:14;;;;;;;7.80;7.17;;;23.00;95.50;;;;;;4991228;28;20186;-83
2022/06/27 00:15:40;;;;;;;14.67;7.73;;;23.00;95.50;;;;;;4990773;28;20240;-83
2022/06/27 00:18:06;;;;;;;7.77;7.27;;;23.00;95.50;;;;;;4991591;28;20193;-83
2022/06/27 00:20:32;;;;;;;8.57;7.60;;;23.00;95.70;;;;;;4987894;28;20179;-82
2022/06/27 00:22:57;;;;;;;10.87;8.07;;;23.00;95.90;;;;;;4984977;28;20949;-83
2022/06/27 00:25:23;;;;;;;8.50;7.33;;;23.00;95.90;;;;;;4991542;28;20178;-84
2022/06/27 00:27:49;;;;;;;9.40;8.10;;;23.00;95.80;;;;;;4992382;28;20262;-84
2022/06/27 00:30:15;;;;;;;9.10;7.93;;;23.00;95.80;;;;;;4991186;28;20240;-83
2022/06/27 00:32:40;;;;;;;9.33;7.17;;;23.00;96.00;;;;;;4991373;28;20224;-83
2022/06/27 00:35:08;;;;;;;9.00;7.73;;;23.00;96.00;;;;;;4991350;28;20205;-83
2022/06/27 00:37:33;;;;;;;9.70;8.20;;;22.90;96.00;;;;;;4993581;28;20560;-83
2022/06/27 00:39:59;;;;;;;11.20;7.97;;;22.90;96.30;;;;;;4994212;28;20421;-83
2022/06/27 00:42:25;;;;;;;7.57;7.23;;;22.80;96.30;;;;;;4994678;28;20265;-83
2022/06/27 00:44:50;;;;;;;9.43;7.43;;;22.80;96.60;;;;;;4995057;28;20228;-82
2022/06/27 00:47:16;;;;;;;8.50;7.00;;;22.70;96.60;;;;;;4994914;28;20667;-83
2022/06/27 00:49:42;;;;;;;8.47;7.57;;;22.60;96.90;;;;;;4995435;28;20948;-83
2022/06/27 00:52:10;;;;;;;8.83;8.37;;;22.50;97.20;;;;;;4995040;28;20186;-83
2022/06/27 00:54:37;;;;;;;8.50;7.70;;;22.50;97.30;;;;;;4982336;28;20183;-82
2022/06/27 00:57:03;;;;;;;10.30;8.87;;;22.40;97.30;;;;;;4995822;28;21159;-83
2022/06/27 00:59:29;;;;;;;9.47;8.30;;;22.30;97.30;;;;;;4994864;28;20463;-83
2022/06/27 01:01:55;;;;;;;10.63;8.67;;;22.20;97.30;;;;;;4994467;28;20919;-83
2022/06/27 01:04:22;;;;;;;8.83;8.10;;;22.20;97.30;;;;;;4995998;28;20193;-83
2022/06/27 01:06:51;;;;;;;10.00;8.63;;;22.10;97.30;;;;;;4992655;28;20687;-83
2022/06/27 01:09:18;;;;;;;10.30;8.73;;;22.10;97.30;;;;;;4986198;28;20821;-82
2022/06/27 01:11:44;;;;;;;8.30;7.60;;;22.00;97.30;;;;;;4994596;28;20429;-84
2022/06/27 01:14:12;;;;;;;8.83;7.87;;;22.00;97.30;;;;;;4994573;28;20455;-84
2022/06/27 01:16:39;;;;;;;10.43;8.40;;;22.00;97.30;;;;;;4994369;28;20252;-83
2022/06/27 01:19:05;;;;;;;9.27;7.97;;;22.00;97.30;;;;;;4994677;28;20413;-83
2022/06/27 01:21:33;;;;;;;8.53;8.00;;;21.90;97.30;;;;;;4994669;28;20453;-84
2022/06/27 01:23:59;;;;;;;10.73;8.77;;;21.90;97.30;;;;;;4994386;28;20467;-82
2022/06/27 01:26:24;;;;;;;11.13;9.50;;;21.80;97.30;;;;;;4993669;28;20715;-84
2022/06/27 01:28:50;;;;;;;12.60;10.23;;;21.80;97.30;;;;;;4994066;28;20643;-83
2022/06/27 01:31:16;;;;;;;10.87;8.90;;;21.70;97.30;;;;;;4994909;28;20182;-83
2022/06/27 01:33:42;;;;;;;10.80;9.03;;;21.60;97.30;;;;;;4994364;28;20221;-84
2022/06/27 01:38:54;;;;;;;12.27;9.90;;;21.50;97.30;;;;;;4982733;28;20197;-84
2022/06/27 01:41:19;;;;;;;14.60;10.37;;;21.50;97.30;;;;;;4992711;28;20765;-88
2022/06/27 01:43:45;;;;;;;10.47;9.07;;;21.50;97.30;;;;;;4991932;28;20425;-88
2022/06/27 01:46:12;;;;;;;10.30;8.77;;;21.40;97.30;;;;;;4991970;28;20181;-86
2022/06/27 01:48:39;;;;;;;11.53;9.87;;;21.40;97.30;;;;;;4991219;28;20464;-88
2022/06/27 01:51:08;;;;;;;10.50;8.63;;;21.40;97.30;;;;;;4992003;28;20507;-87
2022/06/27 01:53:36;;;;;;;11.60;9.83;;;21.30;97.30;;;;;;4979937;28;20433;-87
2022/06/27 01:56:02;;;;;;;10.93;9.53;;;21.30;97.30;;;;;;4993321;28;20473;-87
2022/06/27 01:58:28;;;;;;;10.87;9.17;;;21.30;97.30;;;;;;4991858;28;20440;-87
2022/06/27 02:00:54;;;;;;;9.60;8.43;;;21.20;97.30;;;;;;4991650;28;21021;-87
2022/06/27 02:03:19;;;;;;;12.30;9.57;;;21.20;97.30;;;;;;4991230;28;20184;-87
2022/06/27 02:05:45;;;;;;;12.93;9.70;;;21.20;97.30;;;;;;4991589;28;20194;-88
2022/06/27 02:08:11;;;;;;;10.47;9.20;;;21.10;97.30;;;;;;4992356;28;20208;-87
2022/06/27 02:10:37;;;;;;;11.60;9.13;;;21.10;97.30;;;;;;4992417;28;20432;-87
2022/06/27 02:13:03;;;;;;;10.97;9.60;;;21.00;97.30;;;;;;4992447;28;20189;-87
2022/06/27 02:15:30;;;;;;;13.17;9.37;;;21.00;97.30;;;;;;4978871;28;20206;-89
2022/06/27 02:17:56;;;;;;;12.10;10.20;;;20.90;97.30;;;;;;4984746;28;20210;-87
2022/06/27 02:20:22;;;;;;;11.80;10.00;;;20.90;97.30;;;;;;4985983;28;20505;-87
2022/06/27 02:22:48;;;;;;;14.40;10.73;;;20.90;97.30;;;;;;4991845;28;20651;-87
2022/06/27 02:25:13;;;;;;;15.17;10.60;;;20.80;97.30;;;;;;4992363;28;20420;-87
2022/06/27 02:27:40;;;;;;;11.17;9.80;;;20.80;97.30;;;;;;4991730;28;20205;-87
2022/06/27 02:30:06;;;;;;;13.63;10.83;;;20.80;97.30;;;;;;4992230;28;20556;-87
2022/06/27 02:32:32;;;;;;;10.97;9.63;;;20.80;97.30;;;;;;4991885;28;20805;-87
2022/06/27 02:34:58;;;;;;;12.13;11.10;;;20.80;97.30;;;;;;4991682;28;20429;-87
2022/06/27 02:37:24;;;;;;;13.93;9.97;;;20.70;97.30;;;;;;4993443;28;20213;-87
2022/06/27 02:39:54;;;;;;;13.53;10.97;;;20.70;97.30;;;;;;4992731;28;20656;-88
2022/06/27 02:42:21;;;;;;;12.13;10.07;;;20.70;97.30;;;;;;4994020;28;20409;-88
2022/06/27 02:44:50;;;;;;;11.20;10.07;;;20.70;97.30;;;;;;4992219;28;20425;-87
2022/06/27 02:47:20;;;;;;;14.40;11.60;;;20.70;97.30;;;;;;4992342;28;20448;-87
2022/06/27 02:49:46;;;;;;;11.73;10.30;;;20.70;97.30;;;;;;4992122;28;20473;-87
2022/06/27 02:52:22;;;;;;;13.53;10.90;;;20.70;97.30;;;;;;4993555;28;20512;-88
2022/06/27 02:54:53;;;;;;;11.10;10.17;;;20.70;97.30;;;;;;4992428;28;20420;-90
2022/06/27 02:57:45;;;;;;;12.70;10.50;;;20.70;97.30;;;;;;4992099;28;20874;-88
2022/06/27 03:00:12;;;;;;;12.67;10.40;;;20.70;97.30;;;;;;4955732;28;20459;-87
2022/06/27 03:02:38;;;;;;;12.30;10.20;;;20.60;97.30;;;;;;4992674;28;20420;-87
2022/06/27 03:05:04;;;;;;;11.40;9.67;;;20.60;97.30;;;;;;4992198;28;20466;-86
2022/06/27 03:07:30;;;;;;;15.67;11.33;;;20.60;97.30;;;;;;4992070;28;20438;-87
2022/06/27 03:10:04;;;;;;;14.13;11.40;;;20.50;97.30;;;;;;4992244;28;20474;-87
2022/06/27 03:12:30;;;;;;;14.27;11.53;;;20.50;97.30;;;;;;4992013;28;20184;-87
2022/06/27 03:14:55;;;;;;;11.33;10.13;;;20.40;97.30;;;;;;4987421;28;20413;-87
2022/06/27 03:17:21;;;;;;;12.43;10.00;;;20.40;97.30;;;;;;4984352;28;20252;-87
2022/06/27 03:19:46;;;;;;;14.50;11.23;;;20.40;97.30;;;;;;4991381;28;20209;-86
2022/06/27 03:22:12;;;;;;;13.73;10.80;;;20.30;97.30;;;;;;4991921;28;20178;-86
2022/06/27 03:24:37;;;;;;;13.00;10.10;;;20.30;97.30;;;;;;4991808;28;20174;-87
2022/06/27 03:27:03;;;;;;;12.13;10.57;;;20.30;97.30;;;;;;5012372;28;20622;-87
2022/06/27 03:29:29;;;;;;;12.80;10.40;;;20.30;97.30;;;;;;4991516;28;20186;-86
2022/06/27 03:31:55;;;;;;;14.77;11.27;;;20.30;97.30;;;;;;4982764;28;20183;-87
2022/06/27 03:34:20;;;;;;;13.77;10.40;;;20.30;97.30;;;;;;4991591;28;20181;-87
2022/06/27 03:36:46;;;;;;;12.60;11.17;;;20.30;97.30;;;;;;4992527;28;20473;-86
2022/06/27 03:39:12;;;;;;;11.73;10.83;;;20.20;97.30;;;;;;4991332;28;20181;-87
2022/06/27 03:41:39;;;;;;;14.40;10.87;;;20.20;97.30;;;;;;4985772;28;20217;-83
2022/06/27 03:44:08;;;;;;;14.63;11.10;;;20.20;97.30;;;;;;4999491;28;20182;-84
2022/06/27 03:46:34;;;;;;;13.00;11.20;;;20.20;97.30;;;;;;4998725;28;20425;-83
2022/06/27 03:51:44;;;;;;;13.70;10.77;;;20.30;97.30;;;;;;5002171;28;20463;-84
2022/06/27 03:54:10;;;;;;;13.93;11.00;;;20.30;97.30;;;;;;4996492;28;20650;-82
2022/06/27 03:56:35;;;;;;;12.87;11.13;;;20.40;97.30;;;;;;4992428;28;20218;-84
2022/06/27 03:59:01;;;;;;;14.33;11.60;;;20.40;97.30;;;;;;4996966;28;20174;-84
2022/06/27 04:01:27;;;;;;;11.53;10.70;;;20.40;97.30;;;;;;4996236;28;20277;-83
2022/06/27 04:03:53;;;;;;;16.10;12.50;;;20.40;97.30;;;;;;4997036;28;21153;-83
2022/06/27 04:06:18;;;;;;;11.53;10.20;;;20.40;97.30;;;;;;4991352;28;20182;-82
2022/06/27 04:08:44;;;;;;;16.00;12.10;;;20.40;97.30;;;;;;4987592;28;20195;-84
2022/06/27 04:11:09;;;;;;;12.80;11.30;;;20.40;97.30;;;;;;4995851;28;20174;-83
2022/06/27 04:13:35;;;;;;;14.73;11.77;;;20.40;97.30;;;;;;4996077;28;20528;-83
2022/06/27 04:16:01;;;;;;;14.30;11.83;;;20.40;97.30;;;;;;5002808;28;20211;-83
2022/06/27 04:18:26;;;;;;;16.10;11.40;;;20.40;97.30;;;;;;5002194;28;20190;-83
2022/06/27 04:20:53;;;;;;;12.27;10.50;;;20.40;97.30;;;;;;4998354;28;20185;-83
2022/06/27 04:23:18;;;;;;;12.87;10.50;;;20.40;97.30;;;;;;5001183;28;20174;-83
2022/06/27 04:25:44;;;;;;;14.17;10.70;;;20.40;97.30;;;;;;5001246;28;20436;-86
2022/06/27 04:28:10;;;;;;;12.43;11.17;;;20.40;97.30;;;;;;5002208;28;20210;-85
2022/06/27 04:30:35;;;;;;;13.77;10.80;;;20.50;97.30;;;;;;5000386;28;20178;-83
2022/06/27 04:33:01;;;;;;;16.50;11.60;;;20.50;97.30;;;;;;5002097;28;20417;-84
2022/06/27 04:35:27;;;;;;;16.30;12.33;;;20.50;97.30;;;;;;5001829;28;20202;-84
2022/06/27 04:37:53;;;;;;;14.43;11.77;;;20.50;97.30;;;;;;5001653;28;20213;-84
2022/06/27 04:40:20;;;;;;;15.93;12.40;;;20.50;97.30;;;;;;5002482;28;20224;-84
2022/06/27 04:42:48;;;;;;;16.30;12.10;;;20.50;97.30;;;;;;4999132;28;20196;-83
2022/06/27 04:45:15;;;;;;;15.37;12.33;;;20.60;97.30;;;;;;4992464;28;20413;-84
2022/06/27 04:47:42;;;;;;;15.10;12.80;;;20.60;97.30;;;;;;4990612;28;20461;-83
2022/06/27 04:50:10;;;;;;;16.57;11.53;;;20.70;97.30;;;;;;4995537;28;20456;-84
2022/06/27 04:52:38;;;;;;;14.83;12.83;;;20.70;97.30;;;;;;4992315;28;20488;-85
2022/06/27 04:55:08;;;;;;;14.40;12.17;;;20.80;97.30;;;;;;5001927;28;20481;-83
2022/06/27 04:57:35;;;;;;;17.43;11.97;;;20.80;97.30;;;;;;5000949;28;20520;-83
2022/06/27 05:00:04;;;;;;;14.33;12.13;;;20.80;97.30;;;;;;4999317;28;20421;-83
2022/06/27 05:02:32;;;;;;;13.53;12.30;;;20.90;97.30;;;;;;4997784;28;20421;-84
2022/06/27 05:04:58;;;;;;;14.07;12.20;;;21.00;97.30;;;;;;4988745;28;20970;-84
2022/06/27 05:07:24;;;;;;;16.37;12.33;;;21.00;97.30;;;;;;4999095;28;20429;-84
2022/06/27 05:09:52;;;;;;;14.00;11.83;;;21.10;97.30;;;;;;4996977;28;20175;-83
2022/06/27 05:12:19;;;;;;;15.17;13.00;;;21.10;97.30;;;;;;4999148;28;20181;-83
2022/06/27 05:14:45;;;;;;;17.43;11.50;;;21.10;97.30;;;;;;4996737;28;20417;-83
2022/06/27 05:17:52;;;;;;;16.70;11.40;;;21.20;97.30;;;;;;4989309;28;20655;-83
2022/06/27 05:20:18;;;;;;;15.43;11.60;;;21.30;97.30;;;;;;4995205;28;20412;-87
2022/06/27 05:22:43;;;;;;;13.93;10.97;;;21.30;97.30;;;;;;4996517;28;21026;-85
2022/06/27 05:25:10;;;;;;;15.43;10.63;;;21.40;97.30;;;;;;5000841;28;20201;-83
2022/06/27 05:27:35;;;;;;;15.50;11.43;;;21.50;97.30;;;;;;4999366;28;20198;-85
2022/06/27 05:30:09;;;;;;;13.27;10.80;;;21.60;97.30;;;;;;4993296;28;20429;-84
2022/06/27 05:32:35;;;;;;;15.30;10.40;;;21.70;97.30;;;;;;4998699;28;20308;-84
2022/06/27 05:35:00;;;;;;;16.40;11.37;;;21.70;97.30;;;;;;4997709;28;20922;-83
2022/06/27 05:37:27;;;;;;;16.07;10.00;;;21.80;97.30;;;;;;5000787;28;20248;-84
2022/06/27 05:39:53;;;;;;;12.83;10.73;;;21.90;97.30;;;;;;5000174;28;20170;-83
2022/06/27 05:42:18;;;;;;;14.30;11.50;;;22.00;97.30;;;;;;5000169;28;20993;-83
2022/06/27 05:44:44;;;;;;;12.70;10.17;;;22.10;97.30;;;;;;4995165;28;20186;-84
2022/06/27 05:47:10;;;;;;;11.13;9.10;;;22.20;97.30;;;;;;4991027;28;20714;-84
2022/06/27 05:49:39;;;;;;;9.77;9.30;;;22.30;97.30;;;;;;4987211;28;20181;-84
2022/06/27 05:52:04;;;;;;;11.63;9.93;;;22.40;97.30;;;;;;4980161;28;20973;-84
2022/06/27 05:54:32;;;;;;;15.43;10.00;;;22.50;97.30;;;;;;4989137;28;20583;-84
2022/06/27 05:56:58;;;;;;;11.87;9.23;;;22.60;97.30;;;;;;4990518;28;20504;-82
2022/06/27 05:59:24;;;;;;;12.13;10.27;;;22.60;97.30;;;;;;4990099;28;20405;-83
2022/06/27 06:01:51;;;;;;;13.70;9.97;;;22.70;97.30;;;;;;4990495;28;20177;-83
2022/06/27 06:04:17;;;;;;;12.23;10.53;;;22.80;97.30;;;;;;4990633;28;20922;-83
2022/06/27 06:06:43;;;;;;;19.73;10.60;;;22.90;97.30;;;;;;4990177;28;20448;-83
2022/06/27 06:09:11;;;;;;;11.47;9.47;;;23.00;97.30;;;;;;4977193;28;20417;-83
2022/06/27 06:11:38;;;;;;;10.60;9.90;;;23.10;97.30;;;;;;4990898;28;20475;-83
2022/06/27 06:14:04;;;;;;;14.40;10.60;;;23.20;97.30;;;;;;4990713;28;20428;-83
2022/06/27 06:16:40;;;;;;;12.10;9.37;;;23.30;97.30;;;;;;4989027;28;20464;-84
2022/06/27 06:19:07;;;;;;;12.20;9.70;;;23.40;97.30;;;;;;4990360;28;20432;-84
2022/06/27 06:21:32;;;;;;;9.57;9.13;;;23.50;97.30;;;;;;4989829;28;20508;-83
2022/06/27 06:23:59;;;;;;;11.20;9.43;;;23.60;97.30;;;;;;4987694;28;20544;-83
2022/06/27 06:26:24;;;;;;;16.43;8.90;;;23.70;97.30;;;;;;4989246;28;20209;-84
2022/06/27 06:28:50;;;;;;;10.60;9.10;;;23.70;97.30;;;;;;4990197;28;21004;-83
2022/06/27 06:31:22;;;;;;;14.40;9.23;;;23.80;97.30;;;;;;4988884;28;20174;-83
2022/06/27 06:33:53;;;;;;;11.30;8.80;;;23.80;97.30;;;;;;4989343;28;20534;-83
2022/06/27 06:36:21;;;;;;;14.00;9.10;;;24.00;97.30;;;;;;4989853;28;20463;-83
2022/06/27 06:38:47;;;;;;;10.90;8.33;;;24.10;97.30;;;;;;4989975;28;20420;-84
2022/06/27 06:41:14;;;;;;;12.30;8.20;;;24.20;97.30;;;;;;4991187;28;20775;-84
2022/06/27 06:43:40;;;;;;;8.17;7.63;;;24.30;97.30;;;;;;4990572;28;20413;-84
2022/06/27 06:46:06;;;;;;;12.07;8.97;;;24.40;97.30;;;;;;4990285;28;20410;-84
2022/06/27 06:48:32;;;;;;;9.93;8.47;;;24.60;97.30;;;;;;4990400;28;20811;-84
2022/06/27 06:50:58;;;;;;;7.40;7.07;;;24.70;97.30;;;;;;4990324;28;20491;-84
2022/06/27 06:53:24;;;;;;;9.70;8.17;;;24.90;97.30;;;;;;4990020;28;20541;-83
2022/06/27 06:55:50;;;;;;;8.73;7.20;;;25.10;97.30;;;;;;4989679;28;20457;-83
2022/06/27 06:58:17;;;;;;;8.47;8.07;;;25.20;97.20;;;;;;4990084;28;20351;-83
2022/06/27 07:00:44;;;;;;;7.00;6.53;;;25.30;96.30;;;;;;4990267;28;20528;-83
2022/06/27 07:03:10;;;;;;;8.63;6.60;;;25.50;96.40;;;;;;4990358;28;20420;-84
2022/06/27 07:05:36;;;;;;;9.27;6.80;;;25.50;95.50;;;;;;4989931;28;20475;-84
2022/06/27 07:08:03;;;;;;;8.90;7.20;;;25.60;95.60;;;;;;4989955;28;20727;-84
2022/06/27 07:10:28;;;;;;;8.50;6.80;;;25.60;95.40;;;;;;4989440;28;20244;-84
2022/06/27 07:12:54;;;;;;;9.50;6.90;;;25.70;94.90;;;;;;4986461;28;20950;-83
2022/06/27 07:15:20;;;;;;;10.90;7.47;;;25.80;94.70;;;;;;4975602;28;20193;-84
2022/06/27 07:17:52;;;;;;;15.93;7.33;;;25.80;94.80;;;;;;4988638;28;20536;-84
2022/06/27 07:20:19;;;;;;;8.37;7.03;;;25.80;94.70;;;;;;4988907;28;20664;-84
2022/06/27 07:22:45;;;;;;;8.53;7.40;;;25.80;94.60;;;;;;4988800;28;20440;-84
2022/06/27 07:25:11;;;;;;;8.63;6.93;;;25.90;94.70;;;;;;4980822;28;20952;-84
2022/06/27 07:27:37;;;;;;;7.23;6.87;;;25.90;94.80;;;;;;4986513;28;20480;-84
2022/06/27 07:30:04;;;;;;;8.90;7.07;;;26.00;94.70;;;;;;4989306;28;20188;-84
2022/06/27 07:32:31;;;;;;;7.23;6.87;;;26.00;94.90;;;;;;4991156;28;20471;-84
2022/06/27 07:34:59;;;;;;;7.27;6.87;;;26.10;94.90;;;;;;4989577;28;20927;-84
2022/06/27 07:37:25;;;;;;;9.37;6.67;;;26.20;94.40;;;;;;4984156;28;20997;-84
2022/06/27 07:39:51;;;;;;;7.00;6.03;;;26.30;94.40;;;;;;4980400;28;20455;-84
2022/06/27 07:42:16;;;;;;;6.40;5.60;;;26.40;94.10;;;;;;4989102;28;20425;-83
2022/06/27 07:44:42;;;;;;;7.10;6.30;;;26.50;93.20;;;;;;4987689;28;20213;-86
2022/06/27 07:47:09;;;;;;;6.13;5.00;;;26.60;93.10;;;;;;4989356;28;20663;-86
2022/06/27 07:49:34;;;;;;;7.87;5.77;;;26.70;92.50;;;;;;4988817;28;20182;-86
2022/06/27 07:52:00;;;;;;;5.87;5.47;;;26.90;91.80;;;;;;4988547;28;20432;-87
2022/06/27 07:54:27;;;;;;;6.27;5.40;;;27.10;91.00;;;;;;4982890;28;20178;-87
2022/06/27 07:56:53;;;;;;;5.70;5.40;;;27.20;90.90;;;;;;4988816;28;20481;-87
2022/06/27 07:59:19;;;;;;;6.70;5.23;;;27.40;90.60;;;;;;4983195;28;20420;-87
2022/06/27 08:01:45;;;;;;;5.70;5.30;;;27.50;90.10;;;;;;4985413;28;20417;-86
2022/06/27 08:04:12;;;;;;;6.33;5.47;;;27.70;89.10;;;;;;4989013;28;20417;-87
2022/06/27 08:06:39;;;;;;;5.17;4.50;;;27.80;89.30;;;;;;4989420;28;20209;-86
2022/06/27 08:09:06;;;;;;;6.00;4.93;;;27.90;86.90;;;;;;4989708;28;20445;-85
2022/06/27 08:11:35;;;;;;;4.73;4.43;;;28.10;88.20;;;;;;4991379;28;20421;-86
2022/06/27 08:14:09;;;;;;;4.97;4.67;;;28.20;88.10;;;;;;4979366;28;20428;-86
2022/06/27 08:16:37;;;;;;;5.00;4.40;;;28.30;87.50;;;;;;4986669;28;20799;-85
2022/06/27 08:19:03;;;;;;;6.20;5.10;;;28.40;86.00;;;;;;4987106;28;20436;-86
2022/06/27 08:21:30;;;;;;;6.03;4.40;;;28.50;85.40;;;;;;4983591;28;20439;-87
2022/06/27 08:23:59;;;;;;;4.67;4.40;;;28.60;86.10;;;;;;4983483;28;20487;-85
2022/06/27 08:26:26;;;;;;;8.13;4.70;;;28.60;86.00;;;;;;4981651;28;20434;-86
2022/06/27 08:28:52;;;;;;;5.10;4.67;;;28.70;85.80;;;;;;4989697;28;20416;-86
2022/06/27 08:31:19;;;;;;;5.30;4.57;;;28.70;85.90;;;;;;4982370;28;20463;-87
2022/06/27 08:33:46;;;;;;;4.90;4.60;;;28.70;85.40;;;;;;4980238;28;20529;-87
2022/06/27 08:36:14;;;;;;;5.10;4.80;;;28.80;85.70;;;;;;4980863;28;20497;-87
2022/06/27 08:38:42;;;;;;;5.70;4.63;;;28.90;84.30;;;;;;4988767;28;20478;-88
2022/06/27 08:41:10;;;;;;;5.13;4.50;;;29.00;83.90;;;;;;4984248;28;20799;-87
2022/06/27 08:43:36;;;;;;;6.10;4.63;;;29.00;84.20;;;;;;4976584;28;20412;-87
2022/06/27 08:46:03;;;;;;;5.50;4.63;;;29.00;84.70;;;;;;4986392;28;20782;-86
2022/06/27 08:48:29;;;;;;;5.60;4.87;;;29.10;84.40;;;;;;4978953;28;20627;-86
2022/06/27 08:50:59;;;;;;;5.10;4.53;;;29.10;84.00;;;;;;5005199;28;20572;-87
2022/06/27 08:53:26;;;;;;;8.23;4.57;;;29.20;84.90;;;;;;4987195;28;20232;-86
2022/06/27 08:55:51;;;;;;;5.10;4.80;;;29.30;84.30;;;;;;4987341;28;20469;-86
2022/06/27 08:58:19;;;;;;;6.13;4.80;;;29.40;84.80;;;;;;4989801;28;20851;-86
2022/06/27 09:00:45;;;;;;;6.00;5.37;;;29.50;85.40;;;;;;4991348;28;20654;-87
2022/06/27 09:03:18;;;;;;;7.80;4.73;;;29.60;85.30;;;;;;4990687;28;20831;-86
2022/06/27 09:05:57;;;;;;;5.07;4.77;;;29.70;85.10;;;;;;4991543;28;20440;-87
2022/06/27 09:08:26;;;;;;;6.33;5.30;;;29.80;84.10;;;;;;4991511;28;20455;-87
2022/06/27 09:10:52;;;;;;;4.87;4.57;;;29.80;83.90;;;;;;4991620;28;20438;-87
2022/06/27 09:13:19;;;;;;;6.23;4.80;;;29.90;83.40;;;;;;4987839;28;20435;-86
2022/06/27 09:16:03;;;;;;;5.00;4.60;;;30.00;82.20;;;;;;4987998;28;20457;-86
2022/06/27 09:18:33;;;;;;;4.30;4.00;;;30.10;82.80;;;;;;4991414;28;20531;-86
2022/06/27 09:21:08;;;;;;;5.97;4.80;;;30.10;81.40;;;;;;4992584;28;20763;-87
2022/06/27 09:23:50;;;;;;;4.63;4.37;;;30.10;81.60;;;;;;4991708;28;20895;-87
2022/06/27 09:26:28;;;;;;;4.77;4.50;;;30.00;81.90;;;;;;4991740;28;20962;-87
2022/06/27 09:29:14;;;;;;;4.90;4.50;;;30.00;81.40;;;;;;4990006;28;20836;-87
2022/06/27 09:31:48;;;;;;;4.40;4.10;;;29.90;80.90;;;;;;4990576;28;20444;-87
2022/06/27 09:34:14;;;;;;;4.20;3.97;;;29.90;82.00;;;;;;4983180;28;20424;-86
2022/06/27 09:37:01;;;;;;;5.40;4.60;;;29.90;82.00;;;;;;4990905;28;21013;-87
2022/06/27 09:39:36;;;;;;;4.80;4.37;;;29.90;81.80;;;;;;4991495;28;20674;-86
2022/06/27 09:42:07;;;;;;;5.27;4.83;;;30.00;81.30;;;;;;4992275;28;20769;-87
2022/06/27 09:44:38;;;;;;;4.87;3.87;;;30.10;81.00;;;;;;4991192;28;20448;-86
2022/06/27 09:47:15;;;;;;;4.73;4.43;;;30.20;81.40;;;;;;4985976;28;20460;-88
2022/06/27 09:49:44;;;;;;;8.37;4.10;;;30.30;81.30;;;;;;4988115;28;20914;-89
2022/06/27 09:52:13;;;;;;;3.97;3.77;;;30.40;80.20;;;;;;4983848;28;20904;-89
2022/06/27 09:54:40;;;;;;;4.00;3.80;;;30.50;80.70;;;;;;4987522;28;20823;-89
2022/06/27 09:57:07;;;;;;;4.67;4.40;;;30.60;79.70;;;;;;4991164;28;20467;-89
2022/06/27 09:59:33;;;;;;;5.20;4.70;;;30.70;79.10;;;;;;4987741;28;20422;-89
2022/06/27 10:02:01;;;;;;;4.60;4.30;;;30.80;78.90;;;;;;4981572;28;20425;-88
2022/06/27 10:04:28;;;;;;;6.13;5.00;;;30.90;78.90;;;;;;4991075;28;20940;-88
2022/06/27 10:06:55;;;;;;;4.60;4.20;;;31.00;78.50;;;;;;4991058;28;20453;-88
2022/06/27 10:09:24;;;;;;;4.07;3.80;;;31.20;79.30;;;;;;4991203;28;20479;-89
2022/06/27 10:12:19;;;;;;;4.87;4.13;;;31.30;76.60;;;;;;4991353;28;20461;-89
2022/06/27 10:14:45;;;;;;;6.60;4.33;;;31.40;76.20;;;;;;4979908;28;20425;-89
2022/06/27 10:17:15;;;;;;;3.90;3.70;;;31.50;76.30;;;;;;4990614;28;20522;-89
2022/06/27 10:20:06;;;;;;;4.30;4.03;;;31.60;78.10;;;;;;5018686;28;20186;-90
2022/06/27 10:22:32;;;;;;;4.20;3.97;;;31.80;76.10;;;;;;4990702;28;20428;-90
2022/06/27 10:25:27;;;;;;;4.47;3.93;;;31.90;76.20;;;;;;4990218;28;20425;-90
2022/06/27 10:28:08;;;;;;;3.70;3.50;;;31.90;74.90;;;;;;4980661;28;20202;-89
2022/06/27 10:30:37;;;;;;;3.47;3.27;;;32.00;74.40;;;;;;4990506;28;20451;-90
2022/06/27 10:33:24;;;;;;;4.40;3.83;;;32.20;72.30;;;;;;4990698;28;20425;-90
2022/06/27 10:35:59;;;;;;;5.33;3.70;;;32.30;72.40;;;;;;4980213;28;20483;-89
2022/06/27 10:38:48;;;;;;;3.90;3.20;;;32.30;72.80;;;;;;4990457;28;20448;-90
2022/06/27 10:41:21;;;;;;;3.93;3.60;;;32.30;72.30;;;;;;4989782;28;20426;-89
2022/06/27 10:43:48;;;;;;;3.37;3.17;;;32.40;72.80;;;;;;4989766;28;20417;-89
2022/06/27 10:46:16;;;;;;;4.70;3.40;;;32.50;72.50;;;;;;4989944;28;20528;-90
2022/06/27 10:48:46;;;;;;;7.70;2.80;;;32.60;73.30;;;;;;4978057;28;20506;-89
2022/06/27 10:51:18;;;;;;;3.20;3.03;;;32.60;72.00;;;;;;4990521;28;20519;-90
2022/06/27 10:53:48;;;;;;;5.50;3.80;;;32.70;71.10;;;;;;5007613;28;20413;-91
2022/06/27 10:56:41;;;;;;;3.63;3.43;;;32.70;71.30;;;;;;5006701;28;20457;-90
2022/06/27 10:59:28;;;;;;;8.40;3.63;;;32.80;72.30;;;;;;4990715;28;20432;-90
2022/06/27 11:01:53;;;;;;;5.70;3.63;;;32.90;72.40;;;;;;4991067;28;20423;-90
2022/06/27 11:04:26;;;;;;;3.57;3.47;;;32.90;72.50;;;;;;4990162;28;20508;-90
2022/06/27 11:06:56;;;;;;;3.17;2.97;;;32.90;72.60;;;;;;4990472;28;20209;-90
2022/06/27 11:09:37;;;;;;;3.23;3.03;;;33.00;71.40;;;;;;4990449;28;20508;-90
2022/06/27 11:12:04;;;;;;;2.73;2.60;;;33.10;70.00;;;;;;4989869;28;20409;-90
2022/06/27 11:14:30;;;;;;;3.57;3.40;;;33.10;69.50;;;;;;4984645;28;20418;-89
2022/06/27 11:16:56;;;;;;;5.70;3.33;;;33.30;69.90;;;;;;4970887;28;20484;-90
2022/06/27 11:22:20;;;;;;;3.20;3.00;;;33.40;69.40;;;;;;4990706;28;20556;-91
2022/06/27 11:24:47;;;;;;;2.90;2.70;;;33.40;68.90;;;;;;4990157;28;20413;-91
2022/06/27 11:27:14;;;;;;;2.90;2.70;;;33.50;68.20;;;;;;4989817;28;20449;-91
2022/06/27 11:32:27;;;;;;;3.47;3.10;;;33.70;68.00;;;;;;4979667;28;20964;-89
2022/06/27 11:34:53;;;;;;;3.63;3.37;;;33.70;68.00;;;;;;4991209;28;20416;-90
2022/06/27 11:37:22;;;;;;;3.90;3.70;;;33.80;69.30;;;;;;4989852;28;20511;-90
2022/06/27 11:40:02;;;;;;;3.77;3.57;;;33.80;70.00;;;;;;4990072;28;20421;-90
2022/06/27 11:42:30;;;;;;;3.87;3.50;;;33.90;71.20;;;;;;4971268;28;20516;-90
2022/06/27 11:45:13;;;;;;;4.87;4.57;;;33.90;71.30;;;;;;4970238;28;20445;-90
2022/06/27 11:47:42;;;;;;;3.40;3.20;;;33.90;70.60;;;;;;4971161;28;20446;-86
2022/06/27 11:50:14;;;;;;;3.53;3.33;;;33.90;69.20;;;;;;4988318;28;20538;-86
2022/06/27 11:52:45;;;;;;;3.03;2.83;;;33.90;69.00;;;;;;4989759;28;20821;-86
2022/06/27 11:55:13;;;;;;;3.20;3.00;;;34.10;68.00;;;;;;4989920;28;20420;-85
2022/06/27 11:57:44;;;;;;;3.50;3.30;;;34.10;69.20;;;;;;4988865;28;20452;-86
2022/06/27 12:00:17;;;;;;;2.97;2.77;;;34.20;69.00;;;;;;4989311;28;20425;-86
2022/06/27 12:02:43;;;;;;;2.80;2.60;;;34.30;69.10;;;;;;4989193;28;20941;-86
2022/06/27 12:05:17;;;;;;;4.10;2.50;;;34.40;69.10;;;;;;4987616;28;20421;-86
2022/06/27 12:08:09;;;;;;;3.37;3.17;;;34.50;68.30;;;;;;4989538;28;20491;-86
2022/06/27 12:11:17;;;;;;;3.00;2.80;;;34.60;68.20;;;;;;4988444;28;20409;-86
2022/06/27 12:13:36;;;;;;;4.63;3.30;;;34.70;69.40;;;;;;4989950;28;20421;-85
2022/06/27 12:16:03;;;;;;;3.30;3.10;;;34.80;70.10;;;;;;4990093;28;20456;-86
2022/06/27 12:18:45;;;;;;;5.97;4.00;;;34.90;70.10;;;;;;4961782;28;20751;-85
2022/06/27 12:21:11;;;;;;;4.00;3.63;;;35.00;69.10;;;;;;4977263;28;20426;-85
2022/06/27 12:23:39;;;;;;;3.37;3.17;;;35.00;69.20;;;;;;4980880;28;20773;-85
2022/06/27 12:26:05;;;;;;;3.53;3.33;;;35.00;69.50;;;;;;4978132;28;20182;-86
2022/06/27 12:28:31;;;;;;;3.77;3.63;;;35.00;70.00;;;;;;4983700;28;20429;-85
2022/06/27 12:30:56;;;;;;;4.20;3.63;;;35.00;71.00;;;;;;4974258;28;20425;-85
2022/06/27 12:33:22;;;;;;;4.50;4.30;;;35.00;69.20;;;;;;4989906;28;20873;-85
2022/06/27 12:35:48;;;;;;;3.50;3.30;;;35.10;68.70;;;;;;4991698;28;20252;-85
2022/06/27 12:38:13;;;;;;;4.40;4.10;;;35.20;69.20;;;;;;4993203;28;20206;-86
2022/06/27 12:40:39;;;;;;;4.43;4.13;;;35.20;68.20;;;;;;4992540;28;20192;-85
2022/06/27 12:43:06;;;;;;;4.23;3.97;;;35.20;68.30;;;;;;4986043;28;20182;-86
2022/06/27 12:45:36;;;;;;;4.80;4.00;;;35.20;68.80;;;;;;4991320;28;20295;-85
2022/06/27 12:48:06;;;;;;;3.73;3.53;;;35.30;68.10;;;;;;4993078;28;20456;-86
2022/06/27 12:50:33;;;;;;;3.40;3.17;;;35.30;67.60;;;;;;4981035;28;20476;-85
2022/06/27 12:52:58;;;;;;;4.47;3.90;;;35.40;67.10;;;;;;4985508;28;20765;-86
2022/06/27 12:55:24;;;;;;;4.37;4.03;;;35.40;67.80;;;;;;4990163;28;20457;-86
2022/06/27 12:57:49;;;;;;;6.50;4.10;;;35.50;67.60;;;;;;4993183;28;20202;-85